Skip Navigation LinksHome page > Weather > Current weather Skip Navigation Links

Current Weather

Alert, Nunavut

For information only: do not use for flight planning or navigation.
Latest weather
Observation time Saturday, October 22, 2016 1:00 PM EDT
Local time Saturday, October 22, 2016 1:45 PM EDT
Flight conditions Instrument Meteorological Conditions
Wind direction Southwest (220°)
Wind speed 38 mph
Visibility 2 mi.
Present weather blowing snow
Sky condition
Ceiling unlimited
Cloud layer few clouds 14,000 ft.
Temperature 7°F
Dewpoint 0°F
Altimeter 30.00 in.Hg
Derived measurements
Relative humidity 72%
Wind chill -19°F
Density altitude -3724 ft.
Sea-level pressure 30.02 in.Hg
METAR CYLT 221700Z 22033KT 2SM BLSN FEW140 M14/M18 A3000 RMK AC2 SLP165


Location code

InnerDrive.Weather 4.0.5722.1 Release CLR 4.0.30319.34209
Copyright ©2015 Inner Drive Technology. All rights reserved. Portions Copyright ©1986-2015 David Braverman.

Find weather

Site navigation

Skip Navigation Links

Place info

Page info

PayPal - The safer, easier way to pay online!

Return home.

Copyright ©2016 Inner Drive Technology. Purveyors of fine, hand-crafted computer software. Page printed 2016-10-22T17:45:16 UTC.